sensor_id;sensor_type;location;lat;lon;timestamp;P1;durP1;ratioP1;P2;durP2;ratioP2
68377;SDS011;55322;48.146;11.516;2022-11-09T00:00:01;4.40;;;1.03;;
68377;SDS011;55322;48.146;11.516;2022-11-09T00:02:28;4.70;;;0.90;;
68377;SDS011;55322;48.146;11.516;2022-11-09T00:04:53;6.10;;;1.70;;
68377;SDS011;55322;48.146;11.516;2022-11-09T00:07:18;5.10;;;1.27;;
68377;SDS011;55322;48.146;11.516;2022-11-09T00:09:44;6.03;;;0.97;;
68377;SDS011;55322;48.146;11.516;2022-11-09T00:12:09;4.30;;;1.10;;
68377;SDS011;55322;48.146;11.516;2022-11-09T00:14:34;4.80;;;1.20;;
68377;SDS011;55322;48.146;11.516;2022-11-09T00:17:00;4.87;;;1.03;;
68377;SDS011;55322;48.146;11.516;2022-11-09T00:19:26;6.23;;;1.30;;
68377;SDS011;55322;48.146;11.516;2022-11-09T00:21:51;4.43;;;0.85;;
68377;SDS011;55322;48.146;11.516;2022-11-09T00:24:17;5.07;;;1.20;;
68377;SDS011;55322;48.146;11.516;2022-11-09T00:26:42;4.50;;;1.00;;
68377;SDS011;55322;48.146;11.516;2022-11-09T00:29:07;5.30;;;1.30;;
68377;SDS011;55322;48.146;11.516;2022-11-09T00:31:33;4.95;;;1.10;;
68377;SDS011;55322;48.146;11.516;2022-11-09T00:33:58;4.70;;;1.10;;
68377;SDS011;55322;48.146;11.516;2022-11-09T00:36:25;4.53;;;0.80;;
68377;SDS011;55322;48.146;11.516;2022-11-09T00:38:52;6.18;;;1.05;;
68377;SDS011;55322;48.146;11.516;2022-11-09T00:41:19;4.93;;;1.10;;
68377;SDS011;55322;48.146;11.516;2022-11-09T00:43:45;5.37;;;0.80;;
68377;SDS011;55322;48.146;11.516;2022-11-09T00:46:11;4.78;;;0.90;;
68377;SDS011;55322;48.146;11.516;2022-11-09T00:48:37;4.80;;;0.95;;
68377;SDS011;55322;48.146;11.516;2022-11-09T00:51:02;4.37;;;0.77;;
68377;SDS011;55322;48.146;11.516;2022-11-09T00:53:29;5.53;;;1.00;;
68377;SDS011;55322;48.146;11.516;2022-11-09T00:55:58;4.80;;;0.90;;
68377;SDS011;55322;48.146;11.516;2022-11-09T00:58:25;4.25;;;0.93;;
68377;SDS011;55322;48.146;11.516;2022-11-09T01:00:53;4.68;;;1.25;;
68377;SDS011;55322;48.146;11.516;2022-11-09T01:03:20;4.38;;;0.82;;
68377;SDS011;55322;48.146;11.516;2022-11-09T01:05:45;4.77;;;1.10;;
68377;SDS011;55322;48.146;11.516;2022-11-09T01:08:10;4.75;;;0.65;;
68377;SDS011;55322;48.146;11.516;2022-11-09T01:10:38;4.87;;;1.00;;
68377;SDS011;55322;48.146;11.516;2022-11-09T01:13:09;3.97;;;0.70;;
68377;SDS011;55322;48.146;11.516;2022-11-09T01:15:38;5.18;;;0.98;;
68377;SDS011;55322;48.146;11.516;2022-11-09T01:18:05;4.40;;;0.90;;
68377;SDS011;55322;48.146;11.516;2022-11-09T01:20:31;5.07;;;1.00;;
68377;SDS011;55322;48.146;11.516;2022-11-09T01:22:56;3.97;;;0.80;;
68377;SDS011;55322;48.146;11.516;2022-11-09T01:25:21;6.87;;;1.10;;
68377;SDS011;55322;48.146;11.516;2022-11-09T01:27:47;6.07;;;1.07;;
68377;SDS011;55322;48.146;11.516;2022-11-09T01:30:12;4.93;;;0.87;;
68377;SDS011;55322;48.146;11.516;2022-11-09T01:32:37;4.60;;;1.00;;
68377;SDS011;55322;48.146;11.516;2022-11-09T01:35:03;4.20;;;0.80;;
68377;SDS011;55322;48.146;11.516;2022-11-09T01:37:28;4.23;;;0.90;;
68377;SDS011;55322;48.146;11.516;2022-11-09T01:39:54;6.23;;;0.87;;
68377;SDS011;55322;48.146;11.516;2022-11-09T01:42:23;3.57;;;0.60;;
68377;SDS011;55322;48.146;11.516;2022-11-09T01:45:03;6.63;;;0.75;;
68377;SDS011;55322;48.146;11.516;2022-11-09T01:47:58;5.00;;;0.80;;
68377;SDS011;55322;48.146;11.516;2022-11-09T01:50:32;3.75;;;0.75;;
68377;SDS011;55322;48.146;11.516;2022-11-09T01:53:08;3.88;;;0.70;;
68377;SDS011;55322;48.146;11.516;2022-11-09T01:55:41;5.43;;;0.80;;
68377;SDS011;55322;48.146;11.516;2022-11-09T01:58:11;3.97;;;0.90;;
68377;SDS011;55322;48.146;11.516;2022-11-09T02:00:40;5.30;;;0.73;;
68377;SDS011;55322;48.146;11.516;2022-11-09T02:03:10;3.83;;;0.80;;
68377;SDS011;55322;48.146;11.516;2022-11-09T02:05:43;3.90;;;0.80;;
68377;SDS011;55322;48.146;11.516;2022-11-09T02:08:09;4.65;;;0.80;;
68377;SDS011;55322;48.146;11.516;2022-11-09T02:10:39;5.32;;;0.90;;
68377;SDS011;55322;48.146;11.516;2022-11-09T02:13:10;4.97;;;0.90;;
68377;SDS011;55322;48.146;11.516;2022-11-09T02:15:37;4.38;;;0.90;;
68377;SDS011;55322;48.146;11.516;2022-11-09T02:18:03;4.40;;;1.13;;
68377;SDS011;55322;48.146;11.516;2022-11-09T02:20:29;4.70;;;0.80;;
68377;SDS011;55322;48.146;11.516;2022-11-09T02:22:54;4.13;;;0.73;;
68377;SDS011;55322;48.146;11.516;2022-11-09T02:25:20;4.40;;;0.80;;
68377;SDS011;55322;48.146;11.516;2022-11-09T02:27:46;3.60;;;0.70;;
68377;SDS011;55322;48.146;11.516;2022-11-09T02:30:11;4.37;;;0.80;;
68377;SDS011;55322;48.146;11.516;2022-11-09T02:32:38;4.60;;;1.00;;
68377;SDS011;55322;48.146;11.516;2022-11-09T02:35:04;4.00;;;0.80;;
68377;SDS011;55322;48.146;11.516;2022-11-09T02:37:48;4.90;;;1.00;;
68377;SDS011;55322;48.146;11.516;2022-11-09T02:40:16;4.53;;;0.98;;
68377;SDS011;55322;48.146;11.516;2022-11-09T02:42:46;6.10;;;0.77;;
68377;SDS011;55322;48.146;11.516;2022-11-09T02:45:11;4.33;;;0.90;;
68377;SDS011;55322;48.146;11.516;2022-11-09T02:47:37;4.13;;;0.80;;
68377;SDS011;55322;48.146;11.516;2022-11-09T02:50:02;4.23;;;0.80;;
68377;SDS011;55322;48.146;11.516;2022-11-09T02:52:28;4.03;;;0.80;;
68377;SDS011;55322;48.146;11.516;2022-11-09T02:54:53;4.13;;;0.80;;
68377;SDS011;55322;48.146;11.516;2022-11-09T02:57:18;4.40;;;1.00;;
68377;SDS011;55322;48.146;11.516;2022-11-09T02:59:44;4.93;;;1.20;;
68377;SDS011;55322;48.146;11.516;2022-11-09T03:02:09;4.57;;;0.90;;
68377;SDS011;55322;48.146;11.516;2022-11-09T03:04:34;4.72;;;0.70;;
68377;SDS011;55322;48.146;11.516;2022-11-09T03:07:00;6.47;;;0.70;;
68377;SDS011;55322;48.146;11.516;2022-11-09T03:09:25;3.43;;;0.50;;
68377;SDS011;55322;48.146;11.516;2022-11-09T03:11:50;3.73;;;0.60;;
68377;SDS011;55322;48.146;11.516;2022-11-09T03:14:16;4.50;;;0.70;;
68377;SDS011;55322;48.146;11.516;2022-11-09T03:16:41;3.97;;;0.57;;
68377;SDS011;55322;48.146;11.516;2022-11-09T03:19:07;3.70;;;0.60;;
68377;SDS011;55322;48.146;11.516;2022-11-09T03:21:32;3.17;;;0.60;;
68377;SDS011;55322;48.146;11.516;2022-11-09T03:23:58;4.33;;;0.70;;
68377;SDS011;55322;48.146;11.516;2022-11-09T03:26:23;3.10;;;0.50;;
68377;SDS011;55322;48.146;11.516;2022-11-09T03:28:49;3.40;;;0.60;;
68377;SDS011;55322;48.146;11.516;2022-11-09T03:31:14;3.67;;;0.53;;
68377;SDS011;55322;48.146;11.516;2022-11-09T03:33:39;4.60;;;0.80;;
68377;SDS011;55322;48.146;11.516;2022-11-09T03:36:05;4.20;;;0.60;;
68377;SDS011;55322;48.146;11.516;2022-11-09T03:38:31;3.78;;;0.70;;
68377;SDS011;55322;48.146;11.516;2022-11-09T03:40:58;4.10;;;0.70;;
68377;SDS011;55322;48.146;11.516;2022-11-09T03:43:23;3.30;;;0.52;;
68377;SDS011;55322;48.146;11.516;2022-11-09T03:45:48;3.57;;;0.60;;
68377;SDS011;55322;48.146;11.516;2022-11-09T03:48:14;3.50;;;0.70;;
68377;SDS011;55322;48.146;11.516;2022-11-09T03:50:39;3.57;;;0.50;;
68377;SDS011;55322;48.146;11.516;2022-11-09T03:53:05;3.20;;;0.50;;
68377;SDS011;55322;48.146;11.516;2022-11-09T03:55:33;3.50;;;0.60;;
68377;SDS011;55322;48.146;11.516;2022-11-09T03:57:58;3.22;;;0.55;;
68377;SDS011;55322;48.146;11.516;2022-11-09T04:00:24;4.53;;;0.50;;
68377;SDS011;55322;48.146;11.516;2022-11-09T04:02:50;4.88;;;0.73;;
68377;SDS011;55322;48.146;11.516;2022-11-09T04:05:15;3.70;;;0.50;;
68377;SDS011;55322;48.146;11.516;2022-11-09T04:07:51;3.50;;;0.50;;
68377;SDS011;55322;48.146;11.516;2022-11-09T04:10:18;2.65;;;0.40;;
68377;SDS011;55322;48.146;11.516;2022-11-09T04:12:44;4.63;;;0.70;;
68377;SDS011;55322;48.146;11.516;2022-11-09T04:15:10;4.68;;;0.70;;
68377;SDS011;55322;48.146;11.516;2022-11-09T04:17:35;4.75;;;0.70;;
68377;SDS011;55322;48.146;11.516;2022-11-09T04:20:01;4.00;;;0.90;;
68377;SDS011;55322;48.146;11.516;2022-11-09T04:22:27;4.57;;;0.57;;
68377;SDS011;55322;48.146;11.516;2022-11-09T04:24:52;4.77;;;0.60;;
68377;SDS011;55322;48.146;11.516;2022-11-09T04:27:17;3.53;;;0.57;;
68377;SDS011;55322;48.146;11.516;2022-11-09T04:29:43;3.92;;;0.60;;
68377;SDS011;55322;48.146;11.516;2022-11-09T04:32:08;5.43;;;0.50;;
68377;SDS011;55322;48.146;11.516;2022-11-09T04:34:34;3.23;;;0.50;;
68377;SDS011;55322;48.146;11.516;2022-11-09T04:36:59;3.90;;;0.60;;
68377;SDS011;55322;48.146;11.516;2022-11-09T04:39:24;3.57;;;0.50;;
68377;SDS011;55322;48.146;11.516;2022-11-09T04:41:49;4.13;;;0.50;;
68377;SDS011;55322;48.146;11.516;2022-11-09T04:44:15;3.67;;;0.53;;
68377;SDS011;55322;48.146;11.516;2022-11-09T04:46:40;3.63;;;0.70;;
68377;SDS011;55322;48.146;11.516;2022-11-09T04:49:06;3.40;;;0.60;;
68377;SDS011;55322;48.146;11.516;2022-11-09T04:51:32;4.43;;;0.60;;
68377;SDS011;55322;48.146;11.516;2022-11-09T04:53:57;3.87;;;0.50;;
68377;SDS011;55322;48.146;11.516;2022-11-09T04:56:22;2.80;;;0.40;;
68377;SDS011;55322;48.146;11.516;2022-11-09T04:58:47;3.33;;;0.50;;
68377;SDS011;55322;48.146;11.516;2022-11-09T05:01:13;4.40;;;0.60;;
68377;SDS011;55322;48.146;11.516;2022-11-09T05:03:40;3.08;;;0.43;;
68377;SDS011;55322;48.146;11.516;2022-11-09T05:06:06;4.13;;;0.60;;
68377;SDS011;55322;48.146;11.516;2022-11-09T05:08:51;3.63;;;0.60;;
68377;SDS011;55322;48.146;11.516;2022-11-09T05:11:16;5.20;;;0.68;;
68377;SDS011;55322;48.146;11.516;2022-11-09T05:13:42;4.07;;;0.60;;
68377;SDS011;55322;48.146;11.516;2022-11-09T05:16:07;3.67;;;0.70;;
68377;SDS011;55322;48.146;11.516;2022-11-09T05:18:33;3.53;;;0.43;;
68377;SDS011;55322;48.146;11.516;2022-11-09T05:20:59;3.40;;;0.50;;
68377;SDS011;55322;48.146;11.516;2022-11-09T05:23:24;3.67;;;0.60;;
68377;SDS011;55322;48.146;11.516;2022-11-09T05:26:08;3.33;;;0.50;;
68377;SDS011;55322;48.146;11.516;2022-11-09T05:28:34;4.00;;;0.87;;
68377;SDS011;55322;48.146;11.516;2022-11-09T05:30:59;3.33;;;0.50;;
68377;SDS011;55322;48.146;11.516;2022-11-09T05:33:24;4.20;;;0.60;;
68377;SDS011;55322;48.146;11.516;2022-11-09T05:35:49;3.90;;;0.60;;
68377;SDS011;55322;48.146;11.516;2022-11-09T05:38:15;4.90;;;0.70;;
68377;SDS011;55322;48.146;11.516;2022-11-09T05:40:40;4.13;;;0.63;;
68377;SDS011;55322;48.146;11.516;2022-11-09T05:43:05;5.10;;;0.73;;
68377;SDS011;55322;48.146;11.516;2022-11-09T05:45:31;3.67;;;0.60;;
68377;SDS011;55322;48.146;11.516;2022-11-09T05:47:56;4.53;;;0.80;;
68377;SDS011;55322;48.146;11.516;2022-11-09T05:50:21;5.70;;;0.70;;
68377;SDS011;55322;48.146;11.516;2022-11-09T05:52:47;5.30;;;0.67;;
68377;SDS011;55322;48.146;11.516;2022-11-09T05:55:12;4.00;;;0.70;;
68377;SDS011;55322;48.146;11.516;2022-11-09T05:57:37;4.93;;;0.70;;
68377;SDS011;55322;48.146;11.516;2022-11-09T06:00:03;3.90;;;0.93;;
68377;SDS011;55322;48.146;11.516;2022-11-09T06:02:29;4.40;;;0.70;;
68377;SDS011;55322;48.146;11.516;2022-11-09T06:04:55;3.78;;;0.70;;
68377;SDS011;55322;48.146;11.516;2022-11-09T06:07:21;4.67;;;0.83;;
68377;SDS011;55322;48.146;11.516;2022-11-09T06:09:46;3.17;;;0.50;;
68377;SDS011;55322;48.146;11.516;2022-11-09T06:12:12;3.67;;;0.70;;
68377;SDS011;55322;48.146;11.516;2022-11-09T06:14:37;4.97;;;0.70;;
68377;SDS011;55322;48.146;11.516;2022-11-09T06:17:02;3.93;;;0.60;;
68377;SDS011;55322;48.146;11.516;2022-11-09T06:19:27;4.63;;;0.50;;
68377;SDS011;55322;48.146;11.516;2022-11-09T06:21:53;3.70;;;0.77;;
68377;SDS011;55322;48.146;11.516;2022-11-09T06:24:18;4.63;;;0.80;;
68377;SDS011;55322;48.146;11.516;2022-11-09T06:26:43;4.13;;;0.63;;
68377;SDS011;55322;48.146;11.516;2022-11-09T06:29:09;4.97;;;0.93;;
68377;SDS011;55322;48.146;11.516;2022-11-09T06:31:34;3.93;;;0.70;;
68377;SDS011;55322;48.146;11.516;2022-11-09T06:34:00;4.10;;;0.70;;
68377;SDS011;55322;48.146;11.516;2022-11-09T06:36:25;5.70;;;0.77;;
68377;SDS011;55322;48.146;11.516;2022-11-09T06:38:51;3.87;;;0.80;;
68377;SDS011;55322;48.146;11.516;2022-11-09T06:41:16;5.10;;;1.00;;
68377;SDS011;55322;48.146;11.516;2022-11-09T06:43:42;5.88;;;1.15;;
68377;SDS011;55322;48.146;11.516;2022-11-09T06:46:08;10.43;;;1.00;;
68377;SDS011;55322;48.146;11.516;2022-11-09T06:48:35;4.60;;;0.93;;
68377;SDS011;55322;48.146;11.516;2022-11-09T06:51:01;5.82;;;1.08;;
68377;SDS011;55322;48.146;11.516;2022-11-09T06:53:28;4.60;;;1.00;;
68377;SDS011;55322;48.146;11.516;2022-11-09T06:55:58;4.68;;;1.02;;
68377;SDS011;55322;48.146;11.516;2022-11-09T06:58:25;7.17;;;1.10;;
68377;SDS011;55322;48.146;11.516;2022-11-09T07:00:50;5.18;;;1.25;;
68377;SDS011;55322;48.146;11.516;2022-11-09T07:03:16;5.90;;;1.30;;
68377;SDS011;55322;48.146;11.516;2022-11-09T07:05:43;5.53;;;1.40;;
68377;SDS011;55322;48.146;11.516;2022-11-09T07:08:09;5.43;;;1.13;;
68377;SDS011;55322;48.146;11.516;2022-11-09T07:10:35;5.28;;;1.40;;
68377;SDS011;55322;48.146;11.516;2022-11-09T07:13:01;4.57;;;1.00;;
68377;SDS011;55322;48.146;11.516;2022-11-09T07:15:27;4.75;;;1.10;;
68377;SDS011;55322;48.146;11.516;2022-11-09T07:17:56;5.30;;;1.00;;
68377;SDS011;55322;48.146;11.516;2022-11-09T07:20:23;7.07;;;1.40;;
68377;SDS011;55322;48.146;11.516;2022-11-09T07:22:48;6.15;;;1.30;;
68377;SDS011;55322;48.146;11.516;2022-11-09T07:25:14;4.83;;;0.90;;
68377;SDS011;55322;48.146;11.516;2022-11-09T07:27:40;6.47;;;1.40;;
68377;SDS011;55322;48.146;11.516;2022-11-09T07:30:05;4.90;;;1.10;;
68377;SDS011;55322;48.146;11.516;2022-11-09T07:32:33;4.72;;;1.00;;
68377;SDS011;55322;48.146;11.516;2022-11-09T07:34:59;7.50;;;1.15;;
68377;SDS011;55322;48.146;11.516;2022-11-09T07:37:25;5.27;;;1.30;;
68377;SDS011;55322;48.146;11.516;2022-11-09T07:39:50;6.13;;;1.60;;
68377;SDS011;55322;48.146;11.516;2022-11-09T07:42:15;5.80;;;1.27;;
68377;SDS011;55322;48.146;11.516;2022-11-09T07:44:40;5.83;;;1.63;;
68377;SDS011;55322;48.146;11.516;2022-11-09T07:47:06;7.00;;;1.40;;
68377;SDS011;55322;48.146;11.516;2022-11-09T07:49:31;5.43;;;1.20;;
68377;SDS011;55322;48.146;11.516;2022-11-09T07:51:56;5.47;;;1.03;;
68377;SDS011;55322;48.146;11.516;2022-11-09T07:54:22;7.03;;;1.30;;
68377;SDS011;55322;48.146;11.516;2022-11-09T07:56:49;5.43;;;1.20;;
68377;SDS011;55322;48.146;11.516;2022-11-09T07:59:15;5.57;;;1.20;;
68377;SDS011;55322;48.146;11.516;2022-11-09T08:01:40;5.83;;;1.30;;
68377;SDS011;55322;48.146;11.516;2022-11-09T08:04:05;5.80;;;1.60;;
68377;SDS011;55322;48.146;11.516;2022-11-09T08:06:30;7.43;;;1.50;;
68377;SDS011;55322;48.146;11.516;2022-11-09T08:08:56;5.90;;;1.13;;
68377;SDS011;55322;48.146;11.516;2022-11-09T08:11:22;4.40;;;1.10;;
68377;SDS011;55322;48.146;11.516;2022-11-09T08:13:47;5.97;;;1.40;;
68377;SDS011;55322;48.146;11.516;2022-11-09T08:16:13;4.65;;;1.10;;
68377;SDS011;55322;48.146;11.516;2022-11-09T08:18:38;6.97;;;1.30;;
68377;SDS011;55322;48.146;11.516;2022-11-09T08:21:03;6.47;;;1.53;;
68377;SDS011;55322;48.146;11.516;2022-11-09T08:23:29;5.43;;;1.40;;
68377;SDS011;55322;48.146;11.516;2022-11-09T08:25:55;5.82;;;1.40;;
68377;SDS011;55322;48.146;11.516;2022-11-09T08:28:20;5.57;;;1.23;;
68377;SDS011;55322;48.146;11.516;2022-11-09T08:30:53;6.68;;;1.48;;
68377;SDS011;55322;48.146;11.516;2022-11-09T08:33:22;7.10;;;1.70;;
68377;SDS011;55322;48.146;11.516;2022-11-09T08:35:48;10.98;;;1.40;;
68377;SDS011;55322;48.146;11.516;2022-11-09T08:38:14;6.57;;;1.60;;
68377;SDS011;55322;48.146;11.516;2022-11-09T08:40:39;5.30;;;1.40;;
68377;SDS011;55322;48.146;11.516;2022-11-09T08:43:05;6.22;;;1.23;;
68377;SDS011;55322;48.146;11.516;2022-11-09T08:45:33;6.30;;;1.10;;
68377;SDS011;55322;48.146;11.516;2022-11-09T08:47:59;9.02;;;1.30;;
68377;SDS011;55322;48.146;11.516;2022-11-09T08:50:26;7.03;;;1.30;;
68377;SDS011;55322;48.146;11.516;2022-11-09T08:52:53;7.82;;;1.13;;
68377;SDS011;55322;48.146;11.516;2022-11-09T08:55:18;6.20;;;1.20;;
68377;SDS011;55322;48.146;11.516;2022-11-09T08:57:43;4.80;;;1.23;;
68377;SDS011;55322;48.146;11.516;2022-11-09T09:00:09;5.43;;;0.90;;
68377;SDS011;55322;48.146;11.516;2022-11-09T09:02:35;9.73;;;1.38;;
68377;SDS011;55322;48.146;11.516;2022-11-09T09:05:00;7.73;;;1.20;;
68377;SDS011;55322;48.146;11.516;2022-11-09T09:07:25;5.63;;;1.33;;
68377;SDS011;55322;48.146;11.516;2022-11-09T09:09:51;6.90;;;1.25;;
68377;SDS011;55322;48.146;11.516;2022-11-09T09:12:16;6.97;;;1.40;;
68377;SDS011;55322;48.146;11.516;2022-11-09T09:14:42;5.15;;;1.05;;
68377;SDS011;55322;48.146;11.516;2022-11-09T09:17:08;6.50;;;1.30;;
68377;SDS011;55322;48.146;11.516;2022-11-09T09:19:33;4.90;;;1.03;;
68377;SDS011;55322;48.146;11.516;2022-11-09T09:21:59;5.13;;;1.00;;
68377;SDS011;55322;48.146;11.516;2022-11-09T09:24:24;5.53;;;0.95;;
68377;SDS011;55322;48.146;11.516;2022-11-09T09:26:50;5.33;;;0.97;;
68377;SDS011;55322;48.146;11.516;2022-11-09T09:29:16;5.20;;;1.20;;
68377;SDS011;55322;48.146;11.516;2022-11-09T09:31:41;5.13;;;1.05;;
68377;SDS011;55322;48.146;11.516;2022-11-09T09:34:06;7.20;;;1.40;;
68377;SDS011;55322;48.146;11.516;2022-11-09T09:36:32;6.43;;;1.20;;
68377;SDS011;55322;48.146;11.516;2022-11-09T09:38:59;4.95;;;1.00;;
68377;SDS011;55322;48.146;11.516;2022-11-09T09:41:33;5.10;;;1.07;;
68377;SDS011;55322;48.146;11.516;2022-11-09T09:44:00;5.32;;;1.23;;
68377;SDS011;55322;48.146;11.516;2022-11-09T09:46:37;3.85;;;0.75;;
68377;SDS011;55322;48.146;11.516;2022-11-09T09:49:11;3.85;;;0.70;;
68377;SDS011;55322;48.146;11.516;2022-11-09T09:51:42;5.97;;;0.80;;
68377;SDS011;55322;48.146;11.516;2022-11-09T09:54:15;5.57;;;0.80;;
68377;SDS011;55322;48.146;11.516;2022-11-09T09:56:44;5.63;;;0.93;;
68377;SDS011;55322;48.146;11.516;2022-11-09T09:59:14;4.82;;;0.90;;
68377;SDS011;55322;48.146;11.516;2022-11-09T10:01:45;7.50;;;0.93;;
68377;SDS011;55322;48.146;11.516;2022-11-09T10:04:18;6.10;;;0.97;;
68377;SDS011;55322;48.146;11.516;2022-11-09T10:10:08;4.88;;;1.08;;
68377;SDS011;55322;48.146;11.516;2022-11-09T10:18:45;5.63;;;0.90;;
68377;SDS011;55322;48.146;11.516;2022-11-09T10:26:53;5.00;;;0.90;;
68377;SDS011;55322;48.146;11.516;2022-11-09T10:29:25;5.00;;;1.10;;
68377;SDS011;55322;48.146;11.516;2022-11-09T10:32:15;4.37;;;1.03;;
68377;SDS011;55322;48.146;11.516;2022-11-09T10:35:01;6.28;;;1.20;;
68377;SDS011;55322;48.146;11.516;2022-11-09T10:37:33;4.53;;;1.10;;
68377;SDS011;55322;48.146;11.516;2022-11-09T10:40:03;4.70;;;1.00;;
68377;SDS011;55322;48.146;11.516;2022-11-09T10:42:30;6.72;;;1.20;;
68377;SDS011;55322;48.146;11.516;2022-11-09T10:44:56;4.30;;;1.13;;
68377;SDS011;55322;48.146;11.516;2022-11-09T10:47:23;9.98;;;1.58;;
68377;SDS011;55322;48.146;11.516;2022-11-09T10:50:07;5.83;;;1.40;;
68377;SDS011;55322;48.146;11.516;2022-11-09T10:53:13;5.85;;;1.38;;
68377;SDS011;55322;48.146;11.516;2022-11-09T10:55:52;9.10;;;1.55;;
68377;SDS011;55322;48.146;11.516;2022-11-09T10:58:35;5.88;;;1.25;;
68377;SDS011;55322;48.146;11.516;2022-11-09T11:01:24;6.20;;;1.40;;
68377;SDS011;55322;48.146;11.516;2022-11-09T11:03:50;4.43;;;1.20;;
68377;SDS011;55322;48.146;11.516;2022-11-09T11:08:46;5.03;;;1.27;;
68377;SDS011;55322;48.146;11.516;2022-11-09T11:11:30;5.05;;;1.08;;
68377;SDS011;55322;48.146;11.516;2022-11-09T11:14:11;4.35;;;1.00;;
68377;SDS011;55322;48.146;11.516;2022-11-09T11:16:41;5.37;;;1.07;;
68377;SDS011;55322;48.146;11.516;2022-11-09T11:30:02;4.80;;;1.20;;
68377;SDS011;55322;48.146;11.516;2022-11-09T11:32:36;5.57;;;0.90;;
68377;SDS011;55322;48.146;11.516;2022-11-09T11:35:03;6.38;;;1.10;;
68377;SDS011;55322;48.146;11.516;2022-11-09T11:37:42;5.07;;;1.20;;
68377;SDS011;55322;48.146;11.516;2022-11-09T11:40:28;4.85;;;0.95;;
68377;SDS011;55322;48.146;11.516;2022-11-09T11:43:40;4.03;;;1.15;;
68377;SDS011;55322;48.146;11.516;2022-11-09T11:56:30;5.32;;;1.10;;
68377;SDS011;55322;48.146;11.516;2022-11-09T11:59:25;4.43;;;0.95;;
68377;SDS011;55322;48.146;11.516;2022-11-09T12:13:32;5.65;;;1.00;;
68377;SDS011;55322;48.146;11.516;2022-11-09T12:26:45;7.10;;;1.08;;
68377;SDS011;55322;48.146;11.516;2022-11-09T12:29:19;6.40;;;1.05;;
68377;SDS011;55322;48.146;11.516;2022-11-09T12:31:48;5.17;;;1.00;;
68377;SDS011;55322;48.146;11.516;2022-11-09T12:37:00;6.65;;;1.00;;
68377;SDS011;55322;48.146;11.516;2022-11-09T12:42:05;5.38;;;1.00;;
68377;SDS011;55322;48.146;11.516;2022-11-09T12:47:40;5.40;;;1.00;;
68377;SDS011;55322;48.146;11.516;2022-11-09T12:50:12;4.18;;;1.00;;
68377;SDS011;55322;48.146;11.516;2022-11-09T12:52:40;4.40;;;0.80;;
68377;SDS011;55322;48.146;11.516;2022-11-09T12:55:10;4.13;;;0.82;;
68377;SDS011;55322;48.146;11.516;2022-11-09T12:57:46;4.63;;;1.00;;
68377;SDS011;55322;48.146;11.516;2022-11-09T13:03:02;3.47;;;0.70;;
68377;SDS011;55322;48.146;11.516;2022-11-09T13:05:31;4.32;;;0.73;;
68377;SDS011;55322;48.146;11.516;2022-11-09T13:07:59;5.25;;;0.80;;
68377;SDS011;55322;48.146;11.516;2022-11-09T13:15:34;6.00;;;1.05;;
68377;SDS011;55322;48.146;11.516;2022-11-09T13:18:01;3.80;;;0.70;;
68377;SDS011;55322;48.146;11.516;2022-11-09T13:22:58;4.27;;;0.70;;
68377;SDS011;55322;48.146;11.516;2022-11-09T13:25:33;4.90;;;1.10;;
68377;SDS011;55322;48.146;11.516;2022-11-09T13:30:55;4.55;;;0.85;;
68377;SDS011;55322;48.146;11.516;2022-11-09T13:33:33;5.82;;;1.20;;
68377;SDS011;55322;48.146;11.516;2022-11-09T13:38:31;5.05;;;1.10;;
68377;SDS011;55322;48.146;11.516;2022-11-09T13:40:58;4.53;;;0.80;;
68377;SDS011;55322;48.146;11.516;2022-11-09T13:43:27;4.68;;;1.10;;
68377;SDS011;55322;48.146;11.516;2022-11-09T13:45:54;3.88;;;0.93;;
68377;SDS011;55322;48.146;11.516;2022-11-09T13:48:23;5.87;;;0.97;;
68377;SDS011;55322;48.146;11.516;2022-11-09T13:50:53;4.88;;;0.98;;
68377;SDS011;55322;48.146;11.516;2022-11-09T13:58:56;4.47;;;0.95;;
68377;SDS011;55322;48.146;11.516;2022-11-09T14:01:47;4.20;;;0.90;;
68377;SDS011;55322;48.146;11.516;2022-11-09T14:04:24;6.28;;;1.00;;
68377;SDS011;55322;48.146;11.516;2022-11-09T14:06:58;6.00;;;1.00;;
68377;SDS011;55322;48.146;11.516;2022-11-09T14:15:11;5.80;;;0.90;;
68377;SDS011;55322;48.146;11.516;2022-11-09T14:18:01;5.78;;;1.00;;
68377;SDS011;55322;48.146;11.516;2022-11-09T14:20:54;5.53;;;1.00;;
68377;SDS011;55322;48.146;11.516;2022-11-09T14:23:29;5.68;;;1.00;;
68377;SDS011;55322;48.146;11.516;2022-11-09T14:25:55;6.47;;;1.00;;
68377;SDS011;55322;48.146;11.516;2022-11-09T14:28:28;4.97;;;1.10;;
68377;SDS011;55322;48.146;11.516;2022-11-09T14:30:55;6.90;;;1.08;;
68377;SDS011;55322;48.146;11.516;2022-11-09T14:35:51;6.20;;;1.15;;
68377;SDS011;55322;48.146;11.516;2022-11-09T14:38:20;5.82;;;1.00;;
68377;SDS011;55322;48.146;11.516;2022-11-09T14:40:48;7.95;;;1.30;;
68377;SDS011;55322;48.146;11.516;2022-11-09T14:43:35;4.95;;;0.85;;
68377;SDS011;55322;48.146;11.516;2022-11-09T14:46:05;5.97;;;1.10;;
68377;SDS011;55322;48.146;11.516;2022-11-09T14:48:36;4.47;;;0.98;;
68377;SDS011;55322;48.146;11.516;2022-11-09T14:51:02;4.50;;;0.90;;
68377;SDS011;55322;48.146;11.516;2022-11-09T14:53:32;4.75;;;1.08;;
68377;SDS011;55322;48.146;11.516;2022-11-09T14:56:01;5.30;;;0.95;;
68377;SDS011;55322;48.146;11.516;2022-11-09T14:58:29;5.70;;;1.02;;
68377;SDS011;55322;48.146;11.516;2022-11-09T15:01:15;4.70;;;0.83;;
68377;SDS011;55322;48.146;11.516;2022-11-09T15:06:32;7.68;;;1.15;;
68377;SDS011;55322;48.146;11.516;2022-11-09T15:09:07;7.07;;;1.30;;
68377;SDS011;55322;48.146;11.516;2022-11-09T15:11:39;7.43;;;0.93;;
68377;SDS011;55322;48.146;11.516;2022-11-09T15:16:46;5.55;;;0.90;;
68377;SDS011;55322;48.146;11.516;2022-11-09T15:19:19;5.45;;;1.08;;
68377;SDS011;55322;48.146;11.516;2022-11-09T15:22:01;4.93;;;1.15;;
68377;SDS011;55322;48.146;11.516;2022-11-09T15:24:26;5.83;;;1.03;;
68377;SDS011;55322;48.146;11.516;2022-11-09T15:26:53;6.65;;;1.20;;
68377;SDS011;55322;48.146;11.516;2022-11-09T15:29:33;4.72;;;0.93;;
68377;SDS011;55322;48.146;11.516;2022-11-09T15:34:35;6.00;;;0.95;;
68377;SDS011;55322;48.146;11.516;2022-11-09T15:37:03;5.95;;;1.05;;
68377;SDS011;55322;48.146;11.516;2022-11-09T15:39:28;5.15;;;1.10;;
68377;SDS011;55322;48.146;11.516;2022-11-09T15:41:53;6.23;;;1.63;;
68377;SDS011;55322;48.146;11.516;2022-11-09T15:44:19;7.13;;;1.80;;
68377;SDS011;55322;48.146;11.516;2022-11-09T15:46:48;6.77;;;1.37;;
68377;SDS011;55322;48.146;11.516;2022-11-09T15:51:48;4.90;;;1.38;;
68377;SDS011;55322;48.146;11.516;2022-11-09T15:54:14;7.57;;;1.50;;
68377;SDS011;55322;48.146;11.516;2022-11-09T15:56:40;7.07;;;1.50;;
68377;SDS011;55322;48.146;11.516;2022-11-09T15:59:06;5.87;;;1.77;;
68377;SDS011;55322;48.146;11.516;2022-11-09T16:01:36;6.28;;;1.52;;
68377;SDS011;55322;48.146;11.516;2022-11-09T16:04:02;5.30;;;1.60;;
68377;SDS011;55322;48.146;11.516;2022-11-09T16:06:28;9.83;;;1.60;;
68377;SDS011;55322;48.146;11.516;2022-11-09T16:08:53;5.33;;;1.40;;
68377;SDS011;55322;48.146;11.516;2022-11-09T16:11:19;8.25;;;1.67;;
68377;SDS011;55322;48.146;11.516;2022-11-09T16:13:44;5.77;;;1.40;;
68377;SDS011;55322;48.146;11.516;2022-11-09T16:16:10;7.00;;;1.40;;
68377;SDS011;55322;48.146;11.516;2022-11-09T17:36:37;10.38;;;2.80;;
68377;SDS011;55322;48.146;11.516;2022-11-09T17:39:02;11.13;;;3.17;;
68377;SDS011;55322;48.146;11.516;2022-11-09T17:41:29;8.57;;;3.10;;
68377;SDS011;55322;48.146;11.516;2022-11-09T17:43:54;8.20;;;3.23;;
68377;SDS011;55322;48.146;11.516;2022-11-09T17:46:20;13.02;;;3.20;;